Time;durP1;ratioP1;P1;durP2;ratioP2;P2;SDS_P1;SDS_P2;PMS_P1;PMS_P2;Temp;Humidity;BMP_temperature;BMP_pressure;BME280_temperature;BME280_humidity;BME280_pressure;Samples;Min_cycle;Max_cycle;Signal;HPM_P1;HPM_P2
2021/05/02 00:01:15;;;;;;;14.50;13.40;;;;;;;5.87;73.97;100126.75;5063158;28;20201;-77
2021/05/02 00:03:42;;;;;;;14.10;13.10;;;;;;;5.86;75.02;100131.03;5071230;28;20197;-77
2021/05/02 00:06:08;;;;;;;14.60;13.50;;;;;;;5.87;74.14;100130.19;5064106;28;20290;-77
2021/05/02 00:08:35;;;;;;;14.13;13.13;;;;;;;5.88;74.93;100128.44;5044316;28;20199;-77
2021/05/02 00:11:03;;;;;;;13.97;12.70;;;;;;;5.89;74.79;100120.69;5043193;28;20208;-77
2021/05/02 00:13:28;;;;;;;14.73;13.63;;;;;;;5.92;74.78;100119.78;5054873;28;20566;-76
2021/05/02 00:15:54;;;;;;;14.80;13.80;;;;;;;5.95;74.62;100125.84;5055251;28;20217;-76
2021/05/02 00:18:25;;;;;;;15.03;13.93;;;;;;;6.02;74.47;100118.91;5055046;28;20194;-77
2021/05/02 00:20:53;;;;;;;15.13;13.80;;;;;;;6.00;74.51;100118.06;5055327;28;20189;-77
2021/05/02 00:23:19;;;;;;;15.30;14.20;;;;;;;6.03;74.49;100118.03;5046865;28;20233;-77
2021/05/02 00:25:45;;;;;;;16.23;15.00;;;;;;;6.00;75.13;100124.97;5046844;28;20606;-76
2021/05/02 00:28:11;;;;;;;16.27;14.90;;;;;;;5.96;75.52;100121.53;5046933;28;20239;-77
2021/05/02 00:30:37;;;;;;;15.10;14.00;;;;;;;5.96;76.02;100121.53;5055225;28;20292;-76
2021/05/02 00:33:03;;;;;;;15.37;14.27;;;;;;;5.97;75.42;100118.94;5054282;28;20221;-77
2021/05/02 00:35:30;;;;;;;16.33;15.03;;;;;;;5.99;75.89;100118.09;5064784;28;20221;-77
2021/05/02 00:37:56;;;;;;;15.63;14.37;;;;;;;5.98;76.07;100122.38;5057176;28;20201;-77
2021/05/02 00:40:31;;;;;;;16.87;15.40;;;;;;;5.98;75.96;100114.59;5055042;28;20250;-76
2021/05/02 00:43:02;;;;;;;16.27;15.00;;;;;;;6.01;76.16;100118.94;5055013;28;20271;-76
2021/05/02 00:45:38;;;;;;;17.50;15.97;;;;;;;6.01;76.00;100111.16;5054814;28;20225;-77
2021/05/02 00:48:05;;;;;;;18.80;16.97;;;;;;;6.09;76.18;100115.41;5044785;28;20559;-77
2021/05/02 00:50:38;;;;;;;18.50;16.73;;;;;;;6.02;76.60;100110.28;5048541;28;20277;-77
2021/05/02 00:53:20;;;;;;;18.00;16.57;;;;;;;5.93;78.09;100113.75;5046472;28;20198;-77
2021/05/02 00:55:49;;;;;;;17.27;15.87;;;;;;;5.88;77.89;100108.59;5047089;28;20635;-76
2021/05/02 00:58:39;;;;;;;19.10;17.50;;;;;;;5.92;77.56;100109.44;5054412;28;20255;-77
2021/05/02 01:01:06;;;;;;;18.83;17.30;;;;;;;5.97;77.44;100110.31;5052109;28;20197;-76
2021/05/02 01:03:33;;;;;;;17.87;16.33;;;;;;;6.01;77.44;100108.56;5065504;28;20204;-76
2021/05/02 01:06:05;;;;;;;18.33;16.93;;;;;;;6.04;77.41;100104.22;5077881;28;20294;-76
2021/05/02 01:08:35;;;;;;;18.63;17.13;;;;;;;6.09;77.21;100101.59;5050649;28;20226;-76
2021/05/02 01:11:04;;;;;;;19.10;17.47;;;;;;;6.07;76.94;100096.44;5046100;28;20204;-77
2021/05/02 01:13:36;;;;;;;18.77;17.07;;;;;;;6.09;77.38;100101.59;5049714;28;20202;-77
2021/05/02 01:16:03;;;;;;;18.83;17.30;;;;;;;6.12;77.29;100102.44;5050985;28;20217;-76
2021/05/02 01:18:29;;;;;;;18.00;16.50;;;;;;;6.10;77.42;100098.13;5045633;28;20226;-77
2021/05/02 01:20:57;;;;;;;17.70;16.10;;;;;;;6.11;77.60;100102.47;5054319;28;20202;-77
2021/05/02 01:23:25;;;;;;;18.00;16.67;;;;;;;6.09;77.55;100104.19;5046590;28;20255;-77
2021/05/02 01:25:53;;;;;;;19.67;17.63;;;;;;;6.08;78.29;100100.72;5042679;28;20293;-77
2021/05/02 01:28:20;;;;;;;18.13;16.60;;;;;;;6.09;78.12;100107.66;5051912;28;20198;-79
2021/05/02 01:30:46;;;;;;;18.93;17.40;;;;;;;6.02;78.40;100108.53;5053954;28;20630;-77
2021/05/02 01:33:12;;;;;;;19.93;18.00;;;;;;;6.02;78.67;100105.94;5045280;28;20197;-78
2021/05/02 01:35:38;;;;;;;20.13;18.43;;;;;;;6.02;78.65;100105.09;5050270;28;20692;-77
2021/05/02 01:38:04;;;;;;;20.67;18.80;;;;;;;6.05;79.04;100105.09;5053753;28;20202;-77
2021/05/02 01:40:31;;;;;;;20.63;18.50;;;;;;;6.04;78.61;100101.63;5053027;28;20247;-77
2021/05/02 01:42:57;;;;;;;21.40;19.40;;;;;;;6.07;78.99;100103.34;5042204;28;20225;-77
2021/05/02 01:45:23;;;;;;;20.33;18.57;;;;;;;6.10;79.14;100100.72;5049561;28;20217;-76
2021/05/02 01:47:52;;;;;;;19.57;18.07;;;;;;;6.12;78.87;100096.38;5044957;28;20253;-76
2021/05/02 01:50:18;;;;;;;20.43;18.73;;;;;;;6.12;79.02;100096.38;5053807;28;20636;-77
2021/05/02 01:52:47;;;;;;;21.20;19.43;;;;;;;6.07;79.00;100096.44;5043647;28;20677;-76
2021/05/02 01:55:14;;;;;;;20.97;18.97;;;;;;;6.10;79.12;100096.41;5039073;28;20194;-77
2021/05/02 01:57:43;;;;;;;20.00;18.23;;;;;;;6.07;79.38;100098.16;5053066;28;20606;-77
2021/05/02 02:00:13;;;;;;;20.70;18.93;;;;;;;6.04;79.28;100096.44;5045033;28;20574;-76
2021/05/02 02:02:41;;;;;;;20.93;19.20;;;;;;;6.07;79.47;100098.16;5053021;28;20205;-75
2021/05/02 02:05:07;;;;;;;21.20;19.40;;;;;;;6.07;79.15;100090.41;5064969;28;20240;-77
2021/05/02 02:07:33;;;;;;;19.73;18.13;;;;;;;6.10;78.89;100095.53;5053169;28;20731;-77
2021/05/02 02:09:59;;;;;;;22.17;19.87;;;;;;;6.12;78.98;100097.25;5053379;28;20259;-76
2021/05/02 02:12:26;;;;;;;21.67;19.67;;;;;;;6.13;79.05;100096.38;5048958;28;20202;-77
2021/05/02 02:14:53;;;;;;;21.33;19.07;;;;;;;6.11;78.85;100102.47;5049318;28;20198;-77
2021/05/02 02:17:20;;;;;;;18.70;17.20;;;;;;;6.14;78.83;100105.00;5052713;28;20711;-77
2021/05/02 02:19:47;;;;;;;19.73;17.97;;;;;;;6.11;79.14;100102.47;5052836;28;20202;-76
2021/05/02 02:22:14;;;;;;;19.93;18.13;;;;;;;6.11;78.81;100098.13;5046748;28;20201;-77
2021/05/02 02:24:44;;;;;;;20.23;18.43;;;;;;;6.09;78.99;100101.59;5053573;28;20201;-76
2021/05/02 02:27:11;;;;;;;19.60;17.70;;;;;;;6.08;78.89;100108.50;5060669;28;20224;-77
2021/05/02 02:29:42;;;;;;;20.40;18.47;;;;;;;6.09;78.90;100104.19;5057975;28;20198;-77
2021/05/02 02:32:10;;;;;;;19.40;17.90;;;;;;;6.09;79.12;100110.22;5055628;28;20194;-77
2021/05/02 02:34:42;;;;;;;18.53;17.10;;;;;;;6.07;79.06;100104.19;5057154;28;20282;-76
2021/05/02 02:37:14;;;;;;;18.83;17.20;;;;;;;6.05;78.96;100105.94;5059029;28;20219;-77
2021/05/02 02:39:45;;;;;;;20.00;18.40;;;;;;;6.03;79.19;100110.28;5061229;28;20197;-76
2021/05/02 02:42:12;;;;;;;19.07;17.57;;;;;;;6.08;79.25;100110.25;5062014;28;20202;-77
2021/05/02 02:44:44;;;;;;;18.77;17.33;;;;;;;6.09;78.91;100109.38;5066012;28;20236;-77
2021/05/02 02:47:11;;;;;;;20.20;18.50;;;;;;;6.02;79.39;100112.88;5065078;28;20241;-77
2021/05/02 02:49:46;;;;;;;18.93;17.37;;;;;;;5.91;79.88;100110.31;5059384;28;20281;-76
2021/05/02 02:52:17;;;;;;;18.97;17.47;;;;;;;5.83;79.88;100117.25;5055089;28;20198;-77
2021/05/02 02:54:47;;;;;;;19.37;17.97;;;;;;;5.75;80.22;100115.56;5056307;28;20786;-76
2021/05/02 02:57:18;;;;;;;19.63;17.93;;;;;;;5.70;80.52;100116.44;5046511;28;20218;-77
2021/05/02 02:59:46;;;;;;;19.57;17.73;;;;;;;5.72;80.63;100115.56;5051935;28;20202;-76
2021/05/02 03:02:14;;;;;;;19.13;17.63;;;;;;;5.68;80.36;100116.44;5047831;28;20194;-77
2021/05/02 03:04:45;;;;;;;19.30;17.80;;;;;;;5.58;80.85;100118.22;5046915;28;20201;-77
2021/05/02 03:07:12;;;;;;;19.57;17.97;;;;;;;5.54;80.72;100116.50;5058321;28;20225;-77
2021/05/02 03:09:41;;;;;;;19.33;17.83;;;;;;;5.59;80.85;100124.28;5052365;28;20201;-77
2021/05/02 03:12:10;;;;;;;20.20;18.60;;;;;;;5.62;81.23;100123.38;5035504;28;20202;-76
2021/05/02 03:14:36;;;;;;;21.87;19.97;;;;;;;5.57;81.39;100120.81;5043328;28;20578;-77
2021/05/02 03:17:04;;;;;;;23.37;21.37;;;;;;;5.56;81.76;100126.84;5043558;28;20276;-76
2021/05/02 03:19:34;;;;;;;21.07;19.07;;;;;;;5.52;81.65;100127.72;5043802;28;20205;-76
2021/05/02 03:22:06;;;;;;;22.20;20.20;;;;;;;5.52;82.24;100126.00;5051567;28;20190;-77
2021/05/02 03:24:34;;;;;;;22.37;20.47;;;;;;;5.56;81.75;100129.44;5040409;28;20564;-76
2021/05/02 03:27:10;;;;;;;23.07;20.67;;;;;;;5.51;82.00;100128.59;5039261;28;20726;-77
2021/05/02 03:29:38;;;;;;;23.97;21.37;;;;;;;5.47;82.42;100127.75;5040162;28;20287;-77
2021/05/02 03:32:06;;;;;;;24.40;22.17;;;;;;;5.44;82.60;100132.09;5047715;28;20205;-77
2021/05/02 03:34:36;;;;;;;23.13;21.20;;;;;;;5.47;82.41;100135.53;5052475;28;20193;-77
2021/05/02 03:37:04;;;;;;;23.77;21.53;;;;;;;5.43;82.98;100130.34;5040465;28;20218;-77
2021/05/02 03:39:30;;;;;;;22.40;20.50;;;;;;;5.43;82.65;100138.09;5041773;28;20198;-76
2021/05/02 03:41:56;;;;;;;22.97;20.87;;;;;;;5.39;82.79;100134.66;5051763;28;20202;-76
2021/05/02 03:44:22;;;;;;;22.93;20.93;;;;;;;5.41;82.67;100142.44;5051513;28;20232;-76
2021/05/02 03:46:48;;;;;;;23.13;20.90;;;;;;;5.42;82.70;100144.16;5052693;28;20321;-77
2021/05/02 03:49:14;;;;;;;23.03;20.83;;;;;;;5.40;82.79;100146.75;5047635;28;20201;-77
2021/05/02 03:51:41;;;;;;;23.43;21.23;;;;;;;5.42;82.83;100146.75;5055258;28;20296;-77
2021/05/02 03:54:07;;;;;;;22.60;20.37;;;;;;;5.38;83.26;100140.72;5055665;28;20197;-77
2021/05/02 03:56:36;;;;;;;23.27;21.27;;;;;;;5.37;83.59;100147.63;5047511;28;20270;-78
2021/05/02 03:59:08;;;;;;;23.40;21.10;;;;;;;5.34;83.58;100154.53;5036089;28;20194;-77
2021/05/02 04:01:34;;;;;;;21.63;19.77;;;;;;;5.37;83.18;100150.22;5051420;28;20304;-77
2021/05/02 04:04:00;;;;;;;21.73;19.83;;;;;;;5.39;83.31;100163.13;5060576;28;20201;-77
2021/05/02 04:06:26;;;;;;;22.40;20.60;;;;;;;5.35;83.61;100162.31;5055641;28;20595;-76
2021/05/02 04:08:53;;;;;;;21.50;19.57;;;;;;;5.40;83.67;100162.28;5044281;28;20202;-76
2021/05/02 04:11:19;;;;;;;21.97;20.13;;;;;;;5.39;83.20;100163.13;5051358;28;20696;-76
2021/05/02 04:13:46;;;;;;;21.30;19.50;;;;;;;5.39;83.35;100176.06;5043411;28;20217;-76
2021/05/02 04:16:13;;;;;;;22.17;20.50;;;;;;;5.36;83.61;100174.34;5054551;28;20249;-76
2021/05/02 04:18:39;;;;;;;21.53;19.67;;;;;;;5.32;83.68;100175.22;5055086;28;20209;-77
2021/05/02 04:21:05;;;;;;;22.80;20.87;;;;;;;5.33;84.02;100181.25;5054965;28;20682;-77
2021/05/02 04:23:32;;;;;;;22.47;20.57;;;;;;;5.30;83.73;100176.97;5047127;28;20205;-75
2021/05/02 04:25:59;;;;;;;23.50;21.37;;;;;;;5.30;84.08;100179.56;5048202;28;20584;-77
2021/05/02 04:28:25;;;;;;;23.10;21.20;;;;;;;5.33;84.01;100176.97;5051379;28;20248;-74
2021/05/02 04:30:51;;;;;;;23.77;21.67;;;;;;;5.30;84.33;100187.31;5050322;28;20209;-76
2021/05/02 04:33:17;;;;;;;22.80;20.73;;;;;;;5.30;84.30;100186.47;5054370;28;20292;-76
2021/05/02 04:35:42;;;;;;;23.70;21.80;;;;;;;5.28;84.71;100193.38;5041692;28;20348;-76
2021/05/02 04:38:08;;;;;;;23.03;20.83;;;;;;;5.27;84.52;100191.63;5051781;28;20692;-77
2021/05/02 04:40:34;;;;;;;23.80;21.57;;;;;;;5.33;84.59;100196.78;5039146;28;20225;-77
2021/05/02 04:43:01;;;;;;;22.53;20.73;;;;;;;5.32;85.18;100198.53;5046622;28;20657;-77
2021/05/02 04:45:27;;;;;;;23.10;21.30;;;;;;;5.32;84.31;100203.69;5046002;28;20284;-77
2021/05/02 04:47:53;;;;;;;23.67;21.37;;;;;;;5.36;84.79;100201.97;5074446;22;20255;-79
2021/05/02 04:50:19;;;;;;;24.03;21.73;;;;;;;5.32;85.35;100208.03;5068970;28;20205;-79
2021/05/02 04:52:45;;;;;;;24.17;22.00;;;;;;;5.34;85.22;100207.16;5065058;28;20238;-77
2021/05/02 04:55:11;;;;;;;25.90;23.13;;;;;;;5.32;86.00;100208.03;5065938;28;20696;-77
2021/05/02 04:57:37;;;;;;;25.23;22.90;;;;;;;5.31;86.12;100207.16;5058472;28;20254;-75
2021/05/02 05:00:06;;;;;;;26.27;23.53;;;;;;;5.32;86.35;100210.63;5038318;28;20260;-78
2021/05/02 05:02:32;;;;;;;27.00;24.43;;;;;;;5.40;86.33;100213.19;5033569;28;20209;-79
2021/05/02 05:04:58;;;;;;;26.80;23.77;;;;;;;5.38;86.50;100215.78;5046933;28;20201;-78
2021/05/02 05:07:24;;;;;;;27.23;24.53;;;;;;;5.38;87.04;100211.44;5044110;28;20215;-79
2021/05/02 05:09:50;;;;;;;26.27;23.83;;;;;;;5.40;86.52;100219.22;5033919;28;20684;-77
2021/05/02 05:12:15;;;;;;;26.73;24.23;;;;;;;5.44;86.71;100222.69;5041566;28;20206;-76
2021/05/02 05:14:41;;;;;;;26.20;23.83;;;;;;;5.47;86.29;100220.94;5033380;28;20202;-76
2021/05/02 05:17:08;;;;;;;26.33;23.53;;;;;;;5.55;86.36;100215.75;5039967;28;20606;-76
2021/05/02 05:19:34;;;;;;;25.50;23.10;;;;;;;5.53;85.83;100220.06;5055084;28;20561;-77
2021/05/02 05:22:00;;;;;;;25.57;22.90;;;;;;;5.56;85.94;100217.47;5041830;28;20209;-76
2021/05/02 05:24:25;;;;;;;23.63;21.33;;;;;;;5.63;85.00;100229.56;5033187;28;20255;-76
2021/05/02 05:26:51;;;;;;;20.60;18.80;;;;;;;5.64;84.46;100228.66;5036663;28;20304;-76
2021/05/02 05:29:17;;;;;;;21.40;19.80;;;;;;;5.67;84.29;100236.44;5053160;28;20265;-76
2021/05/02 05:31:43;;;;;;;20.93;19.27;;;;;;;5.70;84.88;100238.16;5052408;28;20204;-77
2021/05/02 05:34:10;;;;;;;21.97;19.87;;;;;;;5.74;85.20;100237.28;5052114;28;20205;-76
2021/05/02 05:36:35;;;;;;;22.70;20.80;;;;;;;5.69;84.85;100239.88;5036363;28;20260;-79
2021/05/02 05:39:01;;;;;;;24.60;22.23;;;;;;;5.68;85.38;100238.16;5036542;28;20292;-77
2021/05/02 05:41:27;;;;;;;24.17;21.83;;;;;;;5.78;85.92;100245.03;5052542;28;20262;-78
2021/05/02 05:43:53;;;;;;;24.60;22.33;;;;;;;5.83;86.22;100238.97;5052368;28;20606;-78
2021/05/02 05:46:19;;;;;;;23.17;20.80;;;;;;;5.93;85.65;100243.28;5052102;28;20198;-76
2021/05/02 05:48:45;;;;;;;20.20;18.60;;;;;;;5.94;84.71;100240.66;5053320;28;20213;-74
2021/05/02 05:51:11;;;;;;;17.90;16.27;;;;;;;6.00;83.12;100245.00;5038064;28;20202;-77
2021/05/02 05:53:37;;;;;;;17.93;16.33;;;;;;;6.05;83.33;100239.81;5040060;28;20205;-76
2021/05/02 05:56:04;;;;;;;17.80;16.40;;;;;;;6.11;83.19;100250.16;5034368;28;20228;-77
2021/05/02 05:58:32;;;;;;;17.47;16.10;;;;;;;6.10;83.78;100253.59;5039029;28;20249;-76
2021/05/02 06:00:57;;;;;;;18.13;16.60;;;;;;;6.21;84.24;100256.16;5051573;28;20201;-75
2021/05/02 06:03:23;;;;;;;17.77;16.47;;;;;;;6.24;83.01;100258.72;5051781;28;20198;-76
2021/05/02 06:05:50;;;;;;;19.53;17.93;;;;;;;6.41;82.69;100258.69;5044048;28;20202;-74
2021/05/02 06:08:17;;;;;;;18.73;17.23;;;;;;;6.26;82.71;100255.25;5043810;28;20241;-76
2021/05/02 06:10:43;;;;;;;18.27;16.77;;;;;;;6.23;82.45;100255.28;5036627;28;20206;-77
2021/05/02 06:13:09;;;;;;;18.80;17.27;;;;;;;6.30;83.08;100264.78;5042522;28;20264;-77
2021/05/02 06:15:35;;;;;;;19.53;18.03;;;;;;;6.17;82.76;100255.31;5038399;28;20198;-77
2021/05/02 06:18:00;;;;;;;19.47;17.87;;;;;;;6.10;83.08;100263.97;5054474;28;20228;-76
2021/05/02 06:20:26;;;;;;;17.80;16.20;;;;;;;6.24;82.80;100266.50;5039729;28;20232;-76
2021/05/02 06:22:53;;;;;;;17.80;16.33;;;;;;;6.29;82.50;100267.38;5039398;28;20669;-78
2021/05/02 06:25:21;;;;;;;16.13;14.87;;;;;;;6.34;81.47;100271.66;5043832;28;20200;-76
2021/05/02 06:27:47;;;;;;;18.63;17.23;;;;;;;6.31;81.71;100270.81;5044786;28;20214;-77
2021/05/02 06:30:13;;;;;;;17.50;16.10;;;;;;;6.30;81.06;100267.38;5032726;28;20233;-77
2021/05/02 06:32:39;;;;;;;17.27;15.77;;;;;;;6.45;80.96;100266.41;5031918;28;20561;-74
2021/05/02 06:35:06;;;;;;;17.03;15.60;;;;;;;6.45;80.18;100268.16;5032594;28;20205;-76
2021/05/02 06:37:32;;;;;;;17.10;15.63;;;;;;;6.52;79.09;100272.41;5039325;28;20230;-77
2021/05/02 06:39:58;;;;;;;15.57;14.37;;;;;;;6.51;78.73;100268.97;5048208;28;20251;-77
2021/05/02 06:42:25;;;;;;;15.47;14.27;;;;;;;6.61;78.42;100274.13;5034677;28;20288;-77
2021/05/02 06:44:51;;;;;;;15.53;14.33;;;;;;;6.60;77.76;100270.69;5050990;28;20236;-75
2021/05/02 06:47:17;;;;;;;15.47;14.27;;;;;;;6.44;78.72;100269.91;5049796;28;20637;-76
2021/05/02 06:49:43;;;;;;;15.23;14.00;;;;;;;6.45;78.51;100278.53;5038000;28;20675;-77
2021/05/02 06:52:09;;;;;;;14.43;13.33;;;;;;;6.50;77.37;100277.66;5043161;28;20195;-76
2021/05/02 06:54:35;;;;;;;13.97;12.77;;;;;;;6.40;75.87;100281.13;5042985;28;20194;-77
2021/05/02 06:57:01;;;;;;;13.60;12.50;;;;;;;6.34;76.08;100273.38;5042190;28;20314;-75
2021/05/02 06:59:27;;;;;;;12.97;11.97;;;;;;;6.41;75.46;100282.00;5041124;28;20194;-76
2021/05/02 07:01:53;;;;;;;12.87;11.97;;;;;;;6.51;75.54;100279.34;5032103;28;20202;-77
2021/05/02 07:04:19;;;;;;;12.30;11.30;;;;;;;6.41;75.90;100282.00;5055672;28;20204;-76
2021/05/02 07:06:45;;;;;;;13.43;12.37;;;;;;;6.49;75.76;100272.47;5062249;28;20225;-76
2021/05/02 07:09:11;;;;;;;12.63;11.63;;;;;;;6.66;76.73;100281.03;5052194;28;20206;-77
2021/05/02 07:11:37;;;;;;;10.67;9.93;;;;;;;6.80;75.00;100280.94;5056525;28;20323;-75
2021/05/02 07:14:03;;;;;;;11.20;10.30;;;;;;;6.86;72.57;100280.91;5056803;28;20657;-77
2021/05/02 07:16:30;;;;;;;11.73;10.83;;;;;;;7.05;74.42;100283.34;5056802;28;20224;-76
2021/05/02 07:18:56;;;;;;;10.03;9.30;;;;;;;7.18;71.74;100281.56;5060051;28;20713;-76
2021/05/02 07:21:22;;;;;;;10.13;9.43;;;;;;;7.29;70.62;100284.91;5056086;28;20205;-77
2021/05/02 07:23:50;;;;;;;9.63;8.93;;;;;;;7.42;69.43;100285.69;5054797;28;20657;-78
2021/05/02 07:26:17;;;;;;;9.23;8.53;;;;;;;7.59;69.93;100278.59;5056200;28;20267;-76
2021/05/02 07:28:43;;;;;;;8.67;7.97;;;;;;;7.54;68.88;100273.44;5060133;28;20207;-76
2021/05/02 07:31:10;;;;;;;8.70;8.03;;;;;;;7.76;69.91;100274.09;5060323;28;20197;-79
2021/05/02 07:33:37;;;;;;;8.40;7.27;;;;;;;7.89;68.23;100276.56;5057166;28;20710;-77
2021/05/02 07:36:04;;;;;;;8.77;8.17;;;;;;;7.99;68.04;100275.59;5060244;28;20694;-79
2021/05/02 07:38:30;;;;;;;8.17;7.47;;;;;;;7.78;69.47;100283.63;5059454;28;20253;-78
2021/05/02 07:40:56;;;;;;;8.97;8.27;;;;;;;7.79;68.71;100281.00;5061068;28;20297;-77
2021/05/02 07:43:23;;;;;;;8.13;7.60;;;;;;;7.69;68.36;100284.53;5038234;28;20714;-78
2021/05/02 07:45:49;;;;;;;9.03;8.43;;;;;;;7.67;70.00;100286.31;5040350;28;20202;-78
2021/05/02 07:48:15;;;;;;;8.73;8.03;;;;;;;7.67;70.15;100291.50;5042307;28;20618;-77
2021/05/02 07:50:42;;;;;;;10.00;9.30;;;;;;;7.82;70.38;100293.94;5057824;28;20235;-77
2021/05/02 07:53:08;;;;;;;11.37;10.50;;;;;;;7.67;70.51;100284.59;5058077;28;20203;-78
2021/05/02 07:55:34;;;;;;;12.23;11.23;;;;;;;7.66;71.72;100294.97;5043193;28;20205;-78
2021/05/02 07:58:00;;;;;;;11.43;10.53;;;;;;;7.78;70.77;100294.00;5042563;28;20229;-78
2021/05/02 08:00:27;;;;;;;11.87;10.87;;;;;;;7.74;71.13;100298.38;5057863;28;20239;-77
2021/05/02 08:02:53;;;;;;;12.13;11.13;;;;;;;7.79;71.79;100283.59;5055292;28;20200;-77
2021/05/02 08:05:19;;;;;;;12.00;11.00;;;;;;;7.83;72.07;100287.91;5046623;28;20211;-77
2021/05/02 08:07:46;;;;;;;12.65;11.75;;;;;;;7.88;70.34;100290.44;5057266;28;20796;-77
2021/05/02 08:10:13;;;;;;;11.23;10.33;;;;;;;7.85;71.32;100299.13;5059635;28;20625;-78
2021/05/02 08:12:39;;;;;;;11.03;10.23;;;;;;;7.79;71.63;100303.50;5061737;28;20209;-76
2021/05/02 08:15:07;;;;;;;12.13;11.10;;;;;;;7.72;72.28;100308.78;5052349;28;20199;-77
2021/05/02 08:17:33;;;;;;;11.57;10.67;;;;;;;7.56;72.33;100312.38;5055570;28;20222;-77
2021/05/02 08:19:59;;;;;;;11.10;10.20;;;;;;;7.54;72.92;100311.53;5056756;28;20220;-78
2021/05/02 08:22:24;;;;;;;11.50;10.50;;;;;;;7.49;72.78;100315.91;5037937;28;20550;-78
2021/05/02 08:24:51;;;;;;;12.80;11.70;;;;;;;7.47;71.77;100315.06;5032003;28;20206;-79
2021/05/02 08:27:17;;;;;;;10.97;10.07;;;;;;;7.47;72.57;100318.53;5047220;28;20224;-79
2021/05/02 08:29:43;;;;;;;10.60;9.70;;;;;;;7.64;72.42;100322.72;5032326;28;20211;-79
2021/05/02 08:32:09;;;;;;;9.53;8.73;;;;;;;7.89;71.01;100316.41;5044073;28;20201;-79
2021/05/02 08:34:35;;;;;;;9.27;8.47;;;;;;;8.00;70.63;100311.09;5040525;28;20240;-80
2021/05/02 08:37:01;;;;;;;10.43;9.63;;;;;;;8.27;69.75;100316.88;5044181;28;20675;-79
2021/05/02 08:39:27;;;;;;;9.50;8.80;;;;;;;8.59;69.15;100311.31;5042721;28;20197;-80
2021/05/02 08:41:53;;;;;;;11.00;10.00;;;;;;;8.71;69.73;100307.69;5065020;28;20617;-79
2021/05/02 08:44:24;;;;;;;10.13;9.33;;;;;;;8.32;70.22;100305.56;5063534;28;20221;-77
2021/05/02 08:46:50;;;;;;;9.00;8.30;;;;;;;8.25;70.30;100314.28;5064366;28;21382;-78
2021/05/02 08:49:16;;;;;;;9.33;8.53;;;;;;;8.12;70.69;100316.16;5058158;28;20234;-77
2021/05/02 08:51:42;;;;;;;9.70;8.90;;;;;;;8.09;70.31;100315.34;5057400;28;20237;-77
2021/05/02 08:54:07;;;;;;;10.43;9.63;;;;;;;7.99;72.54;100321.50;5059589;28;20217;-78
2021/05/02 08:56:33;;;;;;;10.57;9.67;;;;;;;7.96;73.79;100328.44;5056787;28;20220;-78
2021/05/02 08:59:00;;;;;;;9.10;8.40;;;;;;;7.81;72.75;100325.13;5056121;28;20201;-78
2021/05/02 09:01:27;;;;;;;9.20;8.40;;;;;;;7.71;73.12;100335.63;5057400;28;20238;-76
2021/05/02 09:03:54;;;;;;;10.40;9.60;;;;;;;7.61;74.17;100338.31;5057769;28;20199;-77
2021/05/02 09:06:22;;;;;;;11.67;10.70;;;;;;;7.22;76.90;100336.03;5056072;28;20688;-77
2021/05/02 09:08:49;;;;;;;10.77;9.93;;;;;;;7.09;78.65;100350.78;5059191;28;20204;-77
2021/05/02 09:11:16;;;;;;;10.80;9.80;;;;;;;7.01;78.92;100339.59;5057553;28;20243;-78
2021/05/02 09:13:48;;;;;;;10.40;9.40;;;;;;;7.00;79.02;100340.50;5059946;28;20197;-78
2021/05/02 09:16:15;;;;;;;9.57;8.43;;;;;;;6.96;78.38;100347.44;5060965;28;20198;-77
2021/05/02 09:18:45;;;;;;;8.47;7.77;;;;;;;6.90;77.79;100339.69;5064011;28;20739;-77
2021/05/02 09:21:15;;;;;;;8.53;7.73;;;;;;;7.06;77.27;100349.97;5063213;28;20208;-78
2021/05/02 09:23:43;;;;;;;9.20;8.50;;;;;;;7.08;77.33;100346.50;5058157;28;20197;-79
2021/05/02 09:26:19;;;;;;;9.13;8.43;;;;;;;7.24;76.67;100352.44;5059472;28;20197;-78
2021/05/02 09:28:47;;;;;;;9.37;8.67;;;;;;;7.42;76.30;100345.41;5060273;28;20202;-78
2021/05/02 09:31:16;;;;;;;10.03;9.17;;;;;;;7.53;75.26;100341.84;5061526;28;20252;-78
2021/05/02 09:33:42;;;;;;;10.87;9.77;;;;;;;7.67;75.53;100352.13;5058621;28;20270;-78
2021/05/02 09:36:10;;;;;;;11.13;10.23;;;;;;;7.79;75.00;100350.28;5058838;28;20776;-78
2021/05/02 09:38:37;;;;;;;11.43;10.33;;;;;;;7.64;75.32;100354.75;5058844;28;20691;-78
2021/05/02 09:41:04;;;;;;;13.03;11.70;;;;;;;7.52;75.31;100352.25;5060729;28;20197;-78
2021/05/02 09:43:36;;;;;;;12.43;11.33;;;;;;;7.41;74.94;100356.66;5060665;28;20209;-78
2021/05/02 09:46:30;;;;;;;11.57;10.57;;;;;;;7.58;75.06;100354.78;5060888;28;20209;-77
2021/05/02 09:48:58;;;;;;;13.17;12.07;;;;;;;7.65;75.40;100351.28;5044057;28;20194;-77
2021/05/02 09:51:25;;;;;;;13.10;11.90;;;;;;;7.82;74.87;100358.06;5044488;28;20206;-78
2021/05/02 09:54:03;;;;;;;12.87;11.77;;;;;;;7.91;74.75;100355.38;5043791;28;20212;-76
2021/05/02 09:56:38;;;;;;;11.70;10.70;;;;;;;8.07;74.09;100353.50;5044658;28;20225;-77
2021/05/02 09:59:05;;;;;;;11.57;10.67;;;;;;;8.11;74.55;100350.00;5043936;28;20214;-77
2021/05/02 10:01:32;;;;;;;12.17;11.27;;;;;;;8.12;73.85;100347.34;5044526;28;21059;-76
2021/05/02 10:04:00;;;;;;;11.50;10.50;;;;;;;8.17;73.71;100362.91;5043249;28;20240;-77
2021/05/02 10:06:31;;;;;;;11.97;11.07;;;;;;;7.83;74.58;100357.16;5043792;28;20229;-76
2021/05/02 10:08:58;;;;;;;11.70;10.50;;;;;;;7.91;73.86;100352.78;5043975;28;20297;-77
2021/05/02 10:11:24;;;;;;;11.97;10.97;;;;;;;7.95;74.70;100347.53;5044276;28;20258;-75
2021/05/02 10:13:50;;;;;;;11.83;10.83;;;;;;;7.79;74.21;100356.34;5043839;28;20745;-77
2021/05/02 10:16:16;;;;;;;10.87;10.07;;;;;;;7.72;74.59;100362.47;5043058;28;20213;-76
2021/05/02 10:18:43;;;;;;;11.30;10.43;;;;;;;7.69;74.28;100363.38;5042640;28;20311;-78
2021/05/02 10:21:09;;;;;;;11.73;10.73;;;;;;;7.87;75.25;100353.66;5043358;28;20569;-76
2021/05/02 10:23:35;;;;;;;12.60;11.60;;;;;;;7.97;74.41;100352.72;5042489;28;20223;-76
2021/05/02 10:26:02;;;;;;;11.43;10.47;;;;;;;8.28;73.52;100350.66;5043397;28;20209;-76
2021/05/02 10:28:30;;;;;;;10.77;9.87;;;;;;;8.34;72.54;100350.59;5043230;28;20289;-75
2021/05/02 10:30:58;;;;;;;11.40;10.50;;;;;;;8.54;72.53;100347.81;5041820;28;20300;-75
2021/05/02 10:33:32;;;;;;;11.03;10.13;;;;;;;8.46;71.41;100348.75;5041240;28;20489;-77
2021/05/02 10:36:03;;;;;;;12.05;11.07;;;;;;;8.58;71.72;100348.59;5039854;28;20873;-76
2021/05/02 10:38:52;;;;;;;10.27;9.33;;;;;;;8.30;71.82;100353.25;5042010;28;20223;-76
2021/05/02 10:41:29;;;;;;;11.20;10.33;;;;;;;8.20;73.01;100355.06;5042960;28;20238;-75
2021/05/02 10:43:57;;;;;;;10.53;9.73;;;;;;;8.06;73.39;100364.75;5041774;28;20202;-76
2021/05/02 10:46:44;;;;;;;11.70;10.13;;;;;;;7.96;74.92;100380.44;5041927;28;20272;-75
2021/05/02 10:49:11;;;;;;;8.73;8.07;;;;;;;7.72;76.43;100402.31;5041426;28;20205;-75
2021/05/02 10:51:38;;;;;;;7.13;6.43;;;;;;;7.25;76.07;100393.09;5042482;28;20657;-78
2021/05/02 10:54:15;;;;;;;7.87;7.13;;;;;;;6.68;80.30;100403.78;5042394;28;20229;-78
2021/05/02 10:56:57;;;;;;;8.13;7.60;;;;;;;6.12;82.51;100408.22;5041180;28;20239;-76
2021/05/02 10:59:26;;;;;;;9.27;8.57;;;;;;;5.87;84.39;100403.91;5040145;28;20237;-77
2021/05/02 11:01:52;;;;;;;8.47;7.70;;;;;;;5.88;84.58;100410.78;5042416;28;20225;-79
2021/05/02 11:04:19;;;;;;;8.40;7.80;;;;;;;6.02;84.99;100416.00;5042122;28;20287;-76
2021/05/02 11:06:55;;;;;;;8.63;8.03;;;;;;;5.96;85.09;100412.53;5041415;28;20255;-77
2021/05/02 11:09:28;;;;;;;8.50;7.77;;;;;;;6.08;84.90;100413.41;5042381;28;20262;-78
2021/05/02 11:11:57;;;;;;;8.40;7.47;;;;;;;6.27;84.80;100415.13;5042293;28;20201;-78
2021/05/02 11:14:36;;;;;;;8.43;7.73;;;;;;;6.53;85.56;100409.84;5042098;28;20209;-76
2021/05/02 11:17:22;;;;;;;8.20;7.50;;;;;;;6.50;84.62;100417.66;5042104;28;20362;-75
2021/05/02 11:19:49;;;;;;;7.87;7.17;;;;;;;6.56;83.97;100414.16;5040984;28;20209;-78
2021/05/02 11:22:16;;;;;;;9.23;8.53;;;;;;;6.53;83.01;100416.78;5042044;28;20524;-75